sensor_id;sensor_type;location;lat;lon;timestamp;temperature;humidity
30134;DHT22;16946;49.984;10.672;2023-07-29T00:00:28;20.10;99.90
30134;DHT22;16946;49.984;10.672;2023-07-29T00:00:59;20.00;99.90
30134;DHT22;16946;49.984;10.672;2023-07-29T00:01:31;20.00;99.90
30134;DHT22;16946;49.984;10.672;2023-07-29T00:02:01;20.00;99.90
30134;DHT22;16946;49.984;10.672;2023-07-29T00:02:33;20.00;99.90
30134;DHT22;16946;49.984;10.672;2023-07-29T00:03:03;19.90;99.90
30134;DHT22;16946;49.984;10.672;2023-07-29T00:03:34;20.00;99.90
30134;DHT22;16946;49.984;10.672;2023-07-29T00:04:04;20.00;99.90
30134;DHT22;16946;49.984;10.672;2023-07-29T00:04:35;20.00;99.90
30134;DHT22;16946;49.984;10.672;2023-07-29T00:05:05;19.90;99.90
30134;DHT22;16946;49.984;10.672;2023-07-29T00:05:40;19.90;99.90
30134;DHT22;16946;49.984;10.672;2023-07-29T00:06:11;19.90;99.90
30134;DHT22;16946;49.984;10.672;2023-07-29T00:06:41;19.90;99.90
30134;DHT22;16946;49.984;10.672;2023-07-29T00:07:12;19.90;99.90
30134;DHT22;16946;49.984;10.672;2023-07-29T00:07:43;20.00;99.90
30134;DHT22;16946;49.984;10.672;2023-07-29T00:08:13;19.90;99.90
30134;DHT22;16946;49.984;10.672;2023-07-29T00:08:44;20.00;99.90
30134;DHT22;16946;49.984;10.672;2023-07-29T00:09:14;20.00;99.90
30134;DHT22;16946;49.984;10.672;2023-07-29T00:09:45;20.00;99.90
30134;DHT22;16946;49.984;10.672;2023-07-29T00:10:16;20.00;99.90
30134;DHT22;16946;49.984;10.672;2023-07-29T00:10:46;19.90;99.90
30134;DHT22;16946;49.984;10.672;2023-07-29T00:11:17;19.90;99.90
30134;DHT22;16946;49.984;10.672;2023-07-29T00:11:48;20.00;99.90
30134;DHT22;16946;49.984;10.672;2023-07-29T00:12:18;19.90;99.90
30134;DHT22;16946;49.984;10.672;2023-07-29T00:12:49;19.90;99.90
30134;DHT22;16946;49.984;10.672;2023-07-29T00:13:19;19.90;99.90
30134;DHT22;16946;49.984;10.672;2023-07-29T00:13:50;19.90;99.90
30134;DHT22;16946;49.984;10.672;2023-07-29T00:14:21;19.90;99.90
30134;DHT22;16946;49.984;10.672;2023-07-29T00:14:51;19.90;99.90
30134;DHT22;16946;49.984;10.672;2023-07-29T00:15:22;19.80;99.90
30134;DHT22;16946;49.984;10.672;2023-07-29T00:15:56;19.80;99.90
30134;DHT22;16946;49.984;10.672;2023-07-29T00:16:26;19.80;99.90
30134;DHT22;16946;49.984;10.672;2023-07-29T00:16:57;19.80;99.90
30134;DHT22;16946;49.984;10.672;2023-07-29T00:17:27;19.80;99.90
30134;DHT22;16946;49.984;10.672;2023-07-29T00:17:58;19.80;99.90
30134;DHT22;16946;49.984;10.672;2023-07-29T00:18:28;19.80;99.90
30134;DHT22;16946;49.984;10.672;2023-07-29T00:18:59;19.80;99.90
30134;DHT22;16946;49.984;10.672;2023-07-29T00:19:30;19.90;99.90
30134;DHT22;16946;49.984;10.672;2023-07-29T00:20:00;19.90;99.90
30134;DHT22;16946;49.984;10.672;2023-07-29T00:20:31;19.90;99.90
30134;DHT22;16946;49.984;10.672;2023-07-29T00:21:01;19.90;99.90
30134;DHT22;16946;49.984;10.672;2023-07-29T00:21:32;20.00;99.90
30134;DHT22;16946;49.984;10.672;2023-07-29T00:22:02;20.00;99.90
30134;DHT22;16946;49.984;10.672;2023-07-29T00:22:33;20.00;99.90
30134;DHT22;16946;49.984;10.672;2023-07-29T00:23:04;20.10;99.90
30134;DHT22;16946;49.984;10.672;2023-07-29T00:23:34;20.10;99.90
30134;DHT22;16946;49.984;10.672;2023-07-29T00:24:05;20.10;99.90
30134;DHT22;16946;49.984;10.672;2023-07-29T00:24:35;20.10;99.90
30134;DHT22;16946;49.984;10.672;2023-07-29T00:25:06;20.10;99.90
30134;DHT22;16946;49.984;10.672;2023-07-29T00:25:37;20.20;99.90
30134;DHT22;16946;49.984;10.672;2023-07-29T00:26:07;20.20;99.90
30134;DHT22;16946;49.984;10.672;2023-07-29T00:26:38;20.20;99.90
30134;DHT22;16946;49.984;10.672;2023-07-29T00:27:08;20.20;99.90
30134;DHT22;16946;49.984;10.672;2023-07-29T00:27:39;20.20;99.90
30134;DHT22;16946;49.984;10.672;2023-07-29T00:28:11;20.10;99.90
30134;DHT22;16946;49.984;10.672;2023-07-29T00:28:41;20.10;99.90
30134;DHT22;16946;49.984;10.672;2023-07-29T00:29:12;20.10;99.90
30134;DHT22;16946;49.984;10.672;2023-07-29T00:29:42;20.10;99.90
30134;DHT22;16946;49.984;10.672;2023-07-29T00:30:13;20.10;99.90
30134;DHT22;16946;49.984;10.672;2023-07-29T00:30:44;20.10;99.90
30134;DHT22;16946;49.984;10.672;2023-07-29T00:31:14;20.10;99.90
30134;DHT22;16946;49.984;10.672;2023-07-29T00:31:45;20.00;99.90
30134;DHT22;16946;49.984;10.672;2023-07-29T00:32:15;20.00;99.90
30134;DHT22;16946;49.984;10.672;2023-07-29T00:32:46;20.00;99.90
30134;DHT22;16946;49.984;10.672;2023-07-29T00:33:16;20.00;99.90
30134;DHT22;16946;49.984;10.672;2023-07-29T00:33:47;20.00;99.90
30134;DHT22;16946;49.984;10.672;2023-07-29T00:34:18;20.00;99.90
30134;DHT22;16946;49.984;10.672;2023-07-29T00:34:49;20.10;99.90
30134;DHT22;16946;49.984;10.672;2023-07-29T00:35:20;20.10;99.90
30134;DHT22;16946;49.984;10.672;2023-07-29T00:35:51;20.00;99.90
30134;DHT22;16946;49.984;10.672;2023-07-29T00:36:21;20.00;99.90
30134;DHT22;16946;49.984;10.672;2023-07-29T00:36:52;20.10;99.90
30134;DHT22;16946;49.984;10.672;2023-07-29T00:37:25;20.00;99.90
30134;DHT22;16946;49.984;10.672;2023-07-29T00:37:55;20.10;99.90
30134;DHT22;16946;49.984;10.672;2023-07-29T00:38:26;20.10;99.90
30134;DHT22;16946;49.984;10.672;2023-07-29T00:38:56;20.10;99.90
30134;DHT22;16946;49.984;10.672;2023-07-29T00:39:27;20.20;99.90
30134;DHT22;16946;49.984;10.672;2023-07-29T00:39:58;20.20;99.90
30134;DHT22;16946;49.984;10.672;2023-07-29T00:40:29;20.20;99.90
30134;DHT22;16946;49.984;10.672;2023-07-29T00:41:02;20.20;99.90
30134;DHT22;16946;49.984;10.672;2023-07-29T00:41:33;20.20;99.90
30134;DHT22;16946;49.984;10.672;2023-07-29T00:42:04;20.20;99.90
30134;DHT22;16946;49.984;10.672;2023-07-29T00:42:35;20.20;99.90
30134;DHT22;16946;49.984;10.672;2023-07-29T00:43:05;20.20;99.90
30134;DHT22;16946;49.984;10.672;2023-07-29T00:43:36;20.20;99.90
30134;DHT22;16946;49.984;10.672;2023-07-29T00:44:07;20.20;99.90
30134;DHT22;16946;49.984;10.672;2023-07-29T00:44:37;20.20;99.90
30134;DHT22;16946;49.984;10.672;2023-07-29T00:45:09;20.20;99.90
30134;DHT22;16946;49.984;10.672;2023-07-29T00:45:42;20.20;99.90
30134;DHT22;16946;49.984;10.672;2023-07-29T00:46:13;20.10;99.90
30134;DHT22;16946;49.984;10.672;2023-07-29T00:46:45;20.10;99.90
30134;DHT22;16946;49.984;10.672;2023-07-29T00:47:18;20.10;99.90
30134;DHT22;16946;49.984;10.672;2023-07-29T00:47:49;20.10;99.90
30134;DHT22;16946;49.984;10.672;2023-07-29T00:48:19;20.10;99.90
30134;DHT22;16946;49.984;10.672;2023-07-29T00:48:50;20.10;99.90
30134;DHT22;16946;49.984;10.672;2023-07-29T00:49:21;20.10;99.90
30134;DHT22;16946;49.984;10.672;2023-07-29T00:49:52;20.00;99.90
30134;DHT22;16946;49.984;10.672;2023-07-29T00:50:23;20.10;99.90
30134;DHT22;16946;49.984;10.672;2023-07-29T00:50:54;20.00;99.90
30134;DHT22;16946;49.984;10.672;2023-07-29T00:51:25;20.00;99.90
30134;DHT22;16946;49.984;10.672;2023-07-29T00:51:56;20.00;99.90
30134;DHT22;16946;49.984;10.672;2023-07-29T00:52:26;20.00;99.90
30134;DHT22;16946;49.984;10.672;2023-07-29T00:52:57;20.00;99.90
30134;DHT22;16946;49.984;10.672;2023-07-29T00:53:28;20.00;99.90
30134;DHT22;16946;49.984;10.672;2023-07-29T00:53:59;20.00;99.90
30134;DHT22;16946;49.984;10.672;2023-07-29T00:54:29;20.00;99.90
30134;DHT22;16946;49.984;10.672;2023-07-29T00:55:00;20.00;99.90
30134;DHT22;16946;49.984;10.672;2023-07-29T00:55:30;19.90;99.90
30134;DHT22;16946;49.984;10.672;2023-07-29T00:56:01;19.90;99.90
30134;DHT22;16946;49.984;10.672;2023-07-29T00:56:31;19.90;99.90
30134;DHT22;16946;49.984;10.672;2023-07-29T00:57:02;19.90;99.90
30134;DHT22;16946;49.984;10.672;2023-07-29T00:57:33;20.00;99.90
30134;DHT22;16946;49.984;10.672;2023-07-29T00:58:04;20.00;99.90
30134;DHT22;16946;49.984;10.672;2023-07-29T00:58:35;20.00;99.90
30134;DHT22;16946;49.984;10.672;2023-07-29T00:59:05;20.00;99.90
30134;DHT22;16946;49.984;10.672;2023-07-29T00:59:36;20.10;99.90
30134;DHT22;16946;49.984;10.672;2023-07-29T01:00:07;20.10;99.90
30134;DHT22;16946;49.984;10.672;2023-07-29T01:00:38;20.10;99.90
30134;DHT22;16946;49.984;10.672;2023-07-29T01:01:09;20.00;99.90
30134;DHT22;16946;49.984;10.672;2023-07-29T01:01:40;20.00;99.90
30134;DHT22;16946;49.984;10.672;2023-07-29T01:02:10;20.00;99.90
30134;DHT22;16946;49.984;10.672;2023-07-29T01:02:42;20.00;99.90
30134;DHT22;16946;49.984;10.672;2023-07-29T01:03:13;20.00;99.90
30134;DHT22;16946;49.984;10.672;2023-07-29T01:03:44;20.00;99.90
30134;DHT22;16946;49.984;10.672;2023-07-29T01:04:15;20.00;99.90
30134;DHT22;16946;49.984;10.672;2023-07-29T01:04:53;20.00;99.90
30134;DHT22;16946;49.984;10.672;2023-07-29T01:05:33;20.00;99.90
30134;DHT22;16946;49.984;10.672;2023-07-29T01:07:19;20.00;99.90
30134;DHT22;16946;49.984;10.672;2023-07-29T01:08:25;20.00;99.90
30134;DHT22;16946;49.984;10.672;2023-07-29T01:09:07;20.00;99.90
30134;DHT22;16946;49.984;10.672;2023-07-29T01:10:46;19.80;99.90
30134;DHT22;16946;49.984;10.672;2023-07-29T01:11:28;19.70;99.90
30134;DHT22;16946;49.984;10.672;2023-07-29T01:12:58;19.70;99.90
30134;DHT22;16946;49.984;10.672;2023-07-29T01:13:47;19.70;99.90
30134;DHT22;16946;49.984;10.672;2023-07-29T01:14:50;19.80;99.90
30134;DHT22;16946;49.984;10.672;2023-07-29T01:16:34;19.70;99.90
30134;DHT22;16946;49.984;10.672;2023-07-29T01:17:23;19.70;99.90
30134;DHT22;16946;49.984;10.672;2023-07-29T01:18:01;19.80;99.90
30134;DHT22;16946;49.984;10.672;2023-07-29T01:18:36;19.80;99.90
30134;DHT22;16946;49.984;10.672;2023-07-29T01:19:24;19.80;99.90
30134;DHT22;16946;49.984;10.672;2023-07-29T01:20:37;19.70;99.90
30134;DHT22;16946;49.984;10.672;2023-07-29T01:21:08;19.70;99.90
30134;DHT22;16946;49.984;10.672;2023-07-29T01:21:40;19.80;99.90
30134;DHT22;16946;49.984;10.672;2023-07-29T01:22:11;19.80;99.90
30134;DHT22;16946;49.984;10.672;2023-07-29T01:22:44;19.70;99.90
30134;DHT22;16946;49.984;10.672;2023-07-29T01:23:16;19.80;99.90
30134;DHT22;16946;49.984;10.672;2023-07-29T01:23:46;19.70;99.90
30134;DHT22;16946;49.984;10.672;2023-07-29T01:24:17;19.70;99.90
30134;DHT22;16946;49.984;10.672;2023-07-29T01:24:47;19.80;99.90
30134;DHT22;16946;49.984;10.672;2023-07-29T01:25:18;19.80;99.90
30134;DHT22;16946;49.984;10.672;2023-07-29T01:25:48;19.70;99.90
30134;DHT22;16946;49.984;10.672;2023-07-29T01:26:19;19.70;99.90
30134;DHT22;16946;49.984;10.672;2023-07-29T01:26:49;19.70;99.90
30134;DHT22;16946;49.984;10.672;2023-07-29T01:27:20;19.70;99.90
30134;DHT22;16946;49.984;10.672;2023-07-29T01:27:51;19.60;99.90
30134;DHT22;16946;49.984;10.672;2023-07-29T01:28:23;19.60;99.90
30134;DHT22;16946;49.984;10.672;2023-07-29T01:28:54;19.60;99.90
30134;DHT22;16946;49.984;10.672;2023-07-29T01:29:25;19.60;99.90
30134;DHT22;16946;49.984;10.672;2023-07-29T01:29:57;19.50;99.90
30134;DHT22;16946;49.984;10.672;2023-07-29T01:30:35;19.50;99.90
30134;DHT22;16946;49.984;10.672;2023-07-29T01:31:27;19.50;99.90
30134;DHT22;16946;49.984;10.672;2023-07-29T01:32:10;19.40;99.90
30134;DHT22;16946;49.984;10.672;2023-07-29T01:32:48;19.40;99.90
30134;DHT22;16946;49.984;10.672;2023-07-29T01:33:26;19.40;99.90
30134;DHT22;16946;49.984;10.672;2023-07-29T01:34:22;19.30;99.90
30134;DHT22;16946;49.984;10.672;2023-07-29T01:35:42;19.30;99.90
30134;DHT22;16946;49.984;10.672;2023-07-29T01:36:10;19.30;99.90
30134;DHT22;16946;49.984;10.672;2023-07-29T01:36:43;19.20;99.90
30134;DHT22;16946;49.984;10.672;2023-07-29T01:37:23;19.20;99.90
30134;DHT22;16946;49.984;10.672;2023-07-29T01:38:01;19.20;99.90
30134;DHT22;16946;49.984;10.672;2023-07-29T01:38:35;19.20;99.90
30134;DHT22;16946;49.984;10.672;2023-07-29T01:39:06;19.20;99.90
30134;DHT22;16946;49.984;10.672;2023-07-29T01:39:39;19.20;99.90
30134;DHT22;16946;49.984;10.672;2023-07-29T01:40:10;19.10;99.90
30134;DHT22;16946;49.984;10.672;2023-07-29T01:40:42;19.10;99.90
30134;DHT22;16946;49.984;10.672;2023-07-29T01:41:14;19.10;99.90
30134;DHT22;16946;49.984;10.672;2023-07-29T01:41:46;19.10;99.90
30134;DHT22;16946;49.984;10.672;2023-07-29T01:42:17;19.10;99.90
30134;DHT22;16946;49.984;10.672;2023-07-29T01:42:48;19.10;99.90
30134;DHT22;16946;49.984;10.672;2023-07-29T01:43:19;19.10;99.90
30134;DHT22;16946;49.984;10.672;2023-07-29T01:43:53;19.00;99.90
30134;DHT22;16946;49.984;10.672;2023-07-29T01:44:26;19.00;99.90
30134;DHT22;16946;49.984;10.672;2023-07-29T01:44:57;19.00;99.90
30134;DHT22;16946;49.984;10.672;2023-07-29T01:45:28;19.00;99.90
30134;DHT22;16946;49.984;10.672;2023-07-29T01:46:02;18.90;99.90
30134;DHT22;16946;49.984;10.672;2023-07-29T01:46:34;18.90;99.90
30134;DHT22;16946;49.984;10.672;2023-07-29T01:47:04;18.90;99.90
30134;DHT22;16946;49.984;10.672;2023-07-29T01:47:36;18.90;99.90
30134;DHT22;16946;49.984;10.672;2023-07-29T01:48:08;18.80;99.90
30134;DHT22;16946;49.984;10.672;2023-07-29T01:48:39;18.80;99.90
30134;DHT22;16946;49.984;10.672;2023-07-29T01:49:10;18.80;99.90
30134;DHT22;16946;49.984;10.672;2023-07-29T01:49:41;18.90;99.90
30134;DHT22;16946;49.984;10.672;2023-07-29T01:50:11;18.90;99.90
30134;DHT22;16946;49.984;10.672;2023-07-29T01:50:42;18.90;99.90
30134;DHT22;16946;49.984;10.672;2023-07-29T01:51:13;18.90;99.90
30134;DHT22;16946;49.984;10.672;2023-07-29T01:51:44;18.90;99.90
30134;DHT22;16946;49.984;10.672;2023-07-29T01:52:15;18.90;99.90
30134;DHT22;16946;49.984;10.672;2023-07-29T01:52:45;18.90;99.90
30134;DHT22;16946;49.984;10.672;2023-07-29T01:53:16;18.90;99.90
30134;DHT22;16946;49.984;10.672;2023-07-29T01:53:46;18.90;99.90
30134;DHT22;16946;49.984;10.672;2023-07-29T01:54:17;18.90;99.90
30134;DHT22;16946;49.984;10.672;2023-07-29T01:54:47;19.00;99.90
30134;DHT22;16946;49.984;10.672;2023-07-29T01:55:18;19.00;99.90
30134;DHT22;16946;49.984;10.672;2023-07-29T01:55:49;19.00;99.90
30134;DHT22;16946;49.984;10.672;2023-07-29T01:56:19;19.00;99.90
30134;DHT22;16946;49.984;10.672;2023-07-29T01:56:50;19.00;99.90
30134;DHT22;16946;49.984;10.672;2023-07-29T01:57:21;19.10;99.90
30134;DHT22;16946;49.984;10.672;2023-07-29T01:57:52;19.10;99.90
30134;DHT22;16946;49.984;10.672;2023-07-29T01:58:22;19.20;99.90
30134;DHT22;16946;49.984;10.672;2023-07-29T01:58:53;19.20;99.90
30134;DHT22;16946;49.984;10.672;2023-07-29T01:59:23;19.20;99.90
30134;DHT22;16946;49.984;10.672;2023-07-29T01:59:54;19.20;99.90
30134;DHT22;16946;49.984;10.672;2023-07-29T02:00:24;19.20;99.90
30134;DHT22;16946;49.984;10.672;2023-07-29T02:00:55;19.20;99.90
30134;DHT22;16946;49.984;10.672;2023-07-29T02:01:25;19.20;99.90
30134;DHT22;16946;49.984;10.672;2023-07-29T02:01:56;19.20;99.90
30134;DHT22;16946;49.984;10.672;2023-07-29T02:02:27;19.20;99.90
30134;DHT22;16946;49.984;10.672;2023-07-29T02:02:57;19.20;99.90
30134;DHT22;16946;49.984;10.672;2023-07-29T02:03:28;19.20;99.90
30134;DHT22;16946;49.984;10.672;2023-07-29T02:03:58;19.20;99.90
30134;DHT22;16946;49.984;10.672;2023-07-29T02:04:29;19.20;99.90
30134;DHT22;16946;49.984;10.672;2023-07-29T02:04:59;19.20;99.90
30134;DHT22;16946;49.984;10.672;2023-07-29T02:05:30;19.20;99.90
30134;DHT22;16946;49.984;10.672;2023-07-29T02:06:00;19.20;99.90
30134;DHT22;16946;49.984;10.672;2023-07-29T02:06:31;19.10;99.90
30134;DHT22;16946;49.984;10.672;2023-07-29T02:07:01;19.10;99.90
30134;DHT22;16946;49.984;10.672;2023-07-29T02:07:32;19.10;99.90
30134;DHT22;16946;49.984;10.672;2023-07-29T02:08:03;19.00;99.90
30134;DHT22;16946;49.984;10.672;2023-07-29T02:08:33;18.90;99.90
30134;DHT22;16946;49.984;10.672;2023-07-29T02:09:04;18.90;99.90
30134;DHT22;16946;49.984;10.672;2023-07-29T02:09:35;18.80;99.90
30134;DHT22;16946;49.984;10.672;2023-07-29T02:10:06;18.80;99.90
30134;DHT22;16946;49.984;10.672;2023-07-29T02:10:37;18.80;99.90
30134;DHT22;16946;49.984;10.672;2023-07-29T02:11:07;18.80;99.90
30134;DHT22;16946;49.984;10.672;2023-07-29T02:11:38;18.90;99.90
30134;DHT22;16946;49.984;10.672;2023-07-29T02:12:09;18.90;99.90
30134;DHT22;16946;49.984;10.672;2023-07-29T02:12:39;18.90;99.90
30134;DHT22;16946;49.984;10.672;2023-07-29T02:13:10;18.90;99.90
30134;DHT22;16946;49.984;10.672;2023-07-29T02:13:40;18.90;99.90
30134;DHT22;16946;49.984;10.672;2023-07-29T02:14:11;18.90;99.90
30134;DHT22;16946;49.984;10.672;2023-07-29T02:14:42;18.90;99.90
30134;DHT22;16946;49.984;10.672;2023-07-29T02:15:12;18.80;99.90
30134;DHT22;16946;49.984;10.672;2023-07-29T02:15:43;18.80;99.90
30134;DHT22;16946;49.984;10.672;2023-07-29T02:16:14;18.70;99.90
30134;DHT22;16946;49.984;10.672;2023-07-29T02:16:44;18.70;99.90
30134;DHT22;16946;49.984;10.672;2023-07-29T02:17:15;18.70;99.90
30134;DHT22;16946;49.984;10.672;2023-07-29T02:17:46;18.80;99.90
30134;DHT22;16946;49.984;10.672;2023-07-29T02:18:16;18.90;99.90
30134;DHT22;16946;49.984;10.672;2023-07-29T02:18:47;18.90;99.90
30134;DHT22;16946;49.984;10.672;2023-07-29T02:19:17;18.90;99.90
30134;DHT22;16946;49.984;10.672;2023-07-29T02:19:48;18.90;99.90
30134;DHT22;16946;49.984;10.672;2023-07-29T02:20:18;18.90;99.90
30134;DHT22;16946;49.984;10.672;2023-07-29T02:20:49;18.90;99.90
30134;DHT22;16946;49.984;10.672;2023-07-29T02:21:20;18.90;99.90
30134;DHT22;16946;49.984;10.672;2023-07-29T02:21:50;18.80;99.90
30134;DHT22;16946;49.984;10.672;2023-07-29T02:22:21;18.80;99.90
30134;DHT22;16946;49.984;10.672;2023-07-29T02:22:51;18.80;99.90
30134;DHT22;16946;49.984;10.672;2023-07-29T02:23:22;18.80;99.90
30134;DHT22;16946;49.984;10.672;2023-07-29T02:23:53;18.80;99.90
30134;DHT22;16946;49.984;10.672;2023-07-29T02:24:23;18.70;99.90
30134;DHT22;16946;49.984;10.672;2023-07-29T02:24:54;18.70;99.90
30134;DHT22;16946;49.984;10.672;2023-07-29T02:25:24;18.60;99.90
30134;DHT22;16946;49.984;10.672;2023-07-29T02:25:55;18.60;99.90
30134;DHT22;16946;49.984;10.672;2023-07-29T02:26:25;18.50;99.90
30134;DHT22;16946;49.984;10.672;2023-07-29T02:26:56;18.50;99.90
30134;DHT22;16946;49.984;10.672;2023-07-29T02:27:27;18.40;99.90
30134;DHT22;16946;49.984;10.672;2023-07-29T02:27:58;18.50;99.90
30134;DHT22;16946;49.984;10.672;2023-07-29T02:28:28;18.40;99.90
30134;DHT22;16946;49.984;10.672;2023-07-29T02:28:59;18.50;99.90
30134;DHT22;16946;49.984;10.672;2023-07-29T02:29:29;18.40;99.90
30134;DHT22;16946;49.984;10.672;2023-07-29T02:30:01;18.40;99.90
30134;DHT22;16946;49.984;10.672;2023-07-29T02:30:31;18.40;99.90
30134;DHT22;16946;49.984;10.672;2023-07-29T02:31:22;18.40;99.90
30134;DHT22;16946;49.984;10.672;2023-07-29T02:31:53;18.40;99.90
30134;DHT22;16946;49.984;10.672;2023-07-29T02:32:23;18.30;99.90
30134;DHT22;16946;49.984;10.672;2023-07-29T02:32:54;18.30;99.90
30134;DHT22;16946;49.984;10.672;2023-07-29T02:33:24;18.20;99.90
30134;DHT22;16946;49.984;10.672;2023-07-29T02:33:55;18.20;99.90
30134;DHT22;16946;49.984;10.672;2023-07-29T02:34:26;18.20;99.90
30134;DHT22;16946;49.984;10.672;2023-07-29T02:34:57;18.20;99.90
30134;DHT22;16946;49.984;10.672;2023-07-29T02:35:28;18.20;99.90
30134;DHT22;16946;49.984;10.672;2023-07-29T02:35:58;18.10;99.90
30134;DHT22;16946;49.984;10.672;2023-07-29T02:36:29;18.10;99.90
30134;DHT22;16946;49.984;10.672;2023-07-29T02:36:59;18.10;99.90
30134;DHT22;16946;49.984;10.672;2023-07-29T02:37:30;18.10;99.90
30134;DHT22;16946;49.984;10.672;2023-07-29T02:38:01;18.10;99.90
30134;DHT22;16946;49.984;10.672;2023-07-29T02:38:31;18.00;99.90
30134;DHT22;16946;49.984;10.672;2023-07-29T02:39:02;18.00;99.90
30134;DHT22;16946;49.984;10.672;2023-07-29T02:39:33;18.00;99.90
30134;DHT22;16946;49.984;10.672;2023-07-29T02:40:04;18.00;99.90
30134;DHT22;16946;49.984;10.672;2023-07-29T02:40:35;17.90;99.90
30134;DHT22;16946;49.984;10.672;2023-07-29T02:41:05;17.90;99.90
30134;DHT22;16946;49.984;10.672;2023-07-29T02:41:36;17.90;99.90
30134;DHT22;16946;49.984;10.672;2023-07-29T02:42:07;17.90;99.90
30134;DHT22;16946;49.984;10.672;2023-07-29T02:42:37;18.00;99.90
30134;DHT22;16946;49.984;10.672;2023-07-29T02:43:08;18.10;99.90
30134;DHT22;16946;49.984;10.672;2023-07-29T02:43:39;18.10;99.90
30134;DHT22;16946;49.984;10.672;2023-07-29T02:44:11;18.20;99.90
30134;DHT22;16946;49.984;10.672;2023-07-29T02:44:42;18.30;99.90
30134;DHT22;16946;49.984;10.672;2023-07-29T02:45:12;18.40;99.90
30134;DHT22;16946;49.984;10.672;2023-07-29T02:45:43;18.40;99.90
30134;DHT22;16946;49.984;10.672;2023-07-29T02:46:13;18.50;99.90
30134;DHT22;16946;49.984;10.672;2023-07-29T02:46:44;18.60;99.90
30134;DHT22;16946;49.984;10.672;2023-07-29T02:47:14;18.60;99.90
30134;DHT22;16946;49.984;10.672;2023-07-29T02:47:45;18.60;99.90
30134;DHT22;16946;49.984;10.672;2023-07-29T02:48:15;18.60;99.90
30134;DHT22;16946;49.984;10.672;2023-07-29T02:48:46;18.60;99.90
30134;DHT22;16946;49.984;10.672;2023-07-29T02:49:17;18.60;99.90
30134;DHT22;16946;49.984;10.672;2023-07-29T02:49:47;18.60;99.90
30134;DHT22;16946;49.984;10.672;2023-07-29T02:50:18;18.60;99.90
30134;DHT22;16946;49.984;10.672;2023-07-29T02:50:48;18.60;99.90
30134;DHT22;16946;49.984;10.672;2023-07-29T02:51:19;18.60;99.90
30134;DHT22;16946;49.984;10.672;2023-07-29T02:51:49;18.60;99.90
30134;DHT22;16946;49.984;10.672;2023-07-29T02:52:20;18.60;99.90
30134;DHT22;16946;49.984;10.672;2023-07-29T02:52:50;18.60;99.90
30134;DHT22;16946;49.984;10.672;2023-07-29T02:53:22;18.60;99.90
30134;DHT22;16946;49.984;10.672;2023-07-29T02:53:53;18.50;99.90
30134;DHT22;16946;49.984;10.672;2023-07-29T02:54:23;18.50;99.90
30134;DHT22;16946;49.984;10.672;2023-07-29T02:54:54;18.50;99.90
30134;DHT22;16946;49.984;10.672;2023-07-29T02:55:24;18.50;99.90
30134;DHT22;16946;49.984;10.672;2023-07-29T02:55:55;18.50;99.90
30134;DHT22;16946;49.984;10.672;2023-07-29T02:56:26;18.40;99.90
30134;DHT22;16946;49.984;10.672;2023-07-29T02:56:56;18.40;99.90
30134;DHT22;16946;49.984;10.672;2023-07-29T02:57:27;18.40;99.90
30134;DHT22;16946;49.984;10.672;2023-07-29T02:57:57;18.40;99.90
30134;DHT22;16946;49.984;10.672;2023-07-29T02:58:28;18.40;99.90
30134;DHT22;16946;49.984;10.672;2023-07-29T02:58:59;18.30;99.90
30134;DHT22;16946;49.984;10.672;2023-07-29T02:59:30;18.30;99.90
30134;DHT22;16946;49.984;10.672;2023-07-29T03:00:01;18.20;99.90
30134;DHT22;16946;49.984;10.672;2023-07-29T03:00:32;18.20;99.90
30134;DHT22;16946;49.984;10.672;2023-07-29T03:01:04;18.20;99.90
30134;DHT22;16946;49.984;10.672;2023-07-29T03:01:35;18.10;99.90
30134;DHT22;16946;49.984;10.672;2023-07-29T03:02:06;18.10;99.90
30134;DHT22;16946;49.984;10.672;2023-07-29T03:02:36;18.00;99.90
30134;DHT22;16946;49.984;10.672;2023-07-29T03:03:07;18.00;99.90
30134;DHT22;16946;49.984;10.672;2023-07-29T03:03:39;18.00;99.90
30134;DHT22;16946;49.984;10.672;2023-07-29T03:04:10;18.00;99.90
30134;DHT22;16946;49.984;10.672;2023-07-29T03:04:43;18.00;99.90
30134;DHT22;16946;49.984;10.672;2023-07-29T03:05:13;18.00;99.90
30134;DHT22;16946;49.984;10.672;2023-07-29T03:05:44;18.00;99.90
30134;DHT22;16946;49.984;10.672;2023-07-29T03:06:14;18.00;99.90
30134;DHT22;16946;49.984;10.672;2023-07-29T03:06:46;18.00;99.90
30134;DHT22;16946;49.984;10.672;2023-07-29T03:07:18;18.00;99.90
30134;DHT22;16946;49.984;10.672;2023-07-29T03:07:49;18.10;99.90
30134;DHT22;16946;49.984;10.672;2023-07-29T03:08:20;18.00;99.90
30134;DHT22;16946;49.984;10.672;2023-07-29T03:08:50;18.00;99.90
30134;DHT22;16946;49.984;10.672;2023-07-29T03:09:21;18.00;99.90
30134;DHT22;16946;49.984;10.672;2023-07-29T03:09:51;18.00;99.90
30134;DHT22;16946;49.984;10.672;2023-07-29T03:10:22;18.00;99.90
30134;DHT22;16946;49.984;10.672;2023-07-29T03:10:52;18.00;99.90
30134;DHT22;16946;49.984;10.672;2023-07-29T03:11:23;18.00;99.90
30134;DHT22;16946;49.984;10.672;2023-07-29T03:11:54;18.00;99.90
30134;DHT22;16946;49.984;10.672;2023-07-29T03:12:25;18.00;99.90
30134;DHT22;16946;49.984;10.672;2023-07-29T03:12:56;18.00;99.90
30134;DHT22;16946;49.984;10.672;2023-07-29T03:13:26;18.00;99.90
30134;DHT22;16946;49.984;10.672;2023-07-29T03:13:57;17.90;99.90
30134;DHT22;16946;49.984;10.672;2023-07-29T03:14:27;17.90;99.90
30134;DHT22;16946;49.984;10.672;2023-07-29T03:14:58;17.80;99.90
30134;DHT22;16946;49.984;10.672;2023-07-29T03:15:31;17.80;99.90
30134;DHT22;16946;49.984;10.672;2023-07-29T03:16:15;17.70;99.90
30134;DHT22;16946;49.984;10.672;2023-07-29T03:16:45;17.70;99.90
30134;DHT22;16946;49.984;10.672;2023-07-29T03:17:16;17.70;99.90
30134;DHT22;16946;49.984;10.672;2023-07-29T03:17:47;17.70;99.90
30134;DHT22;16946;49.984;10.672;2023-07-29T03:18:17;17.70;99.90
30134;DHT22;16946;49.984;10.672;2023-07-29T03:18:49;17.70;99.90
30134;DHT22;16946;49.984;10.672;2023-07-29T03:19:19;17.70;99.90
30134;DHT22;16946;49.984;10.672;2023-07-29T03:19:50;17.60;99.90
30134;DHT22;16946;49.984;10.672;2023-07-29T03:20:20;17.60;99.90
30134;DHT22;16946;49.984;10.672;2023-07-29T03:20:51;17.50;99.90
30134;DHT22;16946;49.984;10.672;2023-07-29T03:21:22;17.50;99.90
30134;DHT22;16946;49.984;10.672;2023-07-29T03:21:52;17.50;99.90
30134;DHT22;16946;49.984;10.672;2023-07-29T03:22:23;17.40;99.90
30134;DHT22;16946;49.984;10.672;2023-07-29T03:22:53;17.40;99.90